sensor_id;sensor_type;location;lat;lon;timestamp;P1;durP1;ratioP1;P2;durP2;ratioP2
66886;SDS011;53798;51.680;5.976;2022-08-24T00:01:59;8.02;;;4.10;;
66886;SDS011;53798;51.680;5.976;2022-08-24T00:04:27;6.43;;;4.38;;
66886;SDS011;53798;51.680;5.976;2022-08-24T00:06:58;6.95;;;4.40;;
66886;SDS011;53798;51.680;5.976;2022-08-24T00:09:28;6.68;;;4.50;;
66886;SDS011;53798;51.680;5.976;2022-08-24T00:11:57;5.32;;;4.10;;
66886;SDS011;53798;51.680;5.976;2022-08-24T00:14:24;9.40;;;4.45;;
66886;SDS011;53798;51.680;5.976;2022-08-24T00:16:52;6.25;;;5.00;;
66886;SDS011;53798;51.680;5.976;2022-08-24T00:19:20;5.95;;;4.80;;
66886;SDS011;53798;51.680;5.976;2022-08-24T00:21:47;8.13;;;4.78;;
66886;SDS011;53798;51.680;5.976;2022-08-24T00:24:14;6.18;;;4.80;;
66886;SDS011;53798;51.680;5.976;2022-08-24T00:26:42;5.18;;;4.28;;
66886;SDS011;53798;51.680;5.976;2022-08-24T00:29:12;6.78;;;4.88;;
66886;SDS011;53798;51.680;5.976;2022-08-24T00:31:41;6.65;;;4.93;;
66886;SDS011;53798;51.680;5.976;2022-08-24T00:34:09;8.07;;;5.07;;
66886;SDS011;53798;51.680;5.976;2022-08-24T00:36:37;9.32;;;7.30;;
66886;SDS011;53798;51.680;5.976;2022-08-24T00:39:05;12.57;;;7.78;;
66886;SDS011;53798;51.680;5.976;2022-08-24T00:41:33;10.80;;;8.75;;
66886;SDS011;53798;51.680;5.976;2022-08-24T00:44:05;12.07;;;9.95;;
66886;SDS011;53798;51.680;5.976;2022-08-24T00:49:39;11.63;;;8.45;;
66886;SDS011;53798;51.680;5.976;2022-08-24T00:52:17;14.45;;;9.43;;
66886;SDS011;53798;51.680;5.976;2022-08-24T00:55:12;20.30;;;12.48;;
66886;SDS011;53798;51.680;5.976;2022-08-24T00:57:50;16.92;;;11.25;;
66886;SDS011;53798;51.680;5.976;2022-08-24T01:00:25;14.57;;;9.80;;
66886;SDS011;53798;51.680;5.976;2022-08-24T01:02:58;11.50;;;9.55;;
66886;SDS011;53798;51.680;5.976;2022-08-24T01:05:31;13.13;;;8.93;;
66886;SDS011;53798;51.680;5.976;2022-08-24T01:08:01;11.90;;;7.90;;
66886;SDS011;53798;51.680;5.976;2022-08-24T01:10:32;9.68;;;6.85;;
66886;SDS011;53798;51.680;5.976;2022-08-24T01:15:41;12.82;;;7.43;;
66886;SDS011;53798;51.680;5.976;2022-08-24T01:18:16;11.88;;;8.07;;
66886;SDS011;53798;51.680;5.976;2022-08-24T01:21:09;11.27;;;8.30;;
66886;SDS011;53798;51.680;5.976;2022-08-24T01:23:46;8.65;;;7.50;;
66886;SDS011;53798;51.680;5.976;2022-08-24T01:29:06;10.27;;;7.80;;
66886;SDS011;53798;51.680;5.976;2022-08-24T01:31:42;12.88;;;8.23;;
66886;SDS011;53798;51.680;5.976;2022-08-24T01:34:11;10.98;;;9.15;;
66886;SDS011;53798;51.680;5.976;2022-08-24T01:36:44;19.13;;;13.68;;
66886;SDS011;53798;51.680;5.976;2022-08-24T01:39:26;14.88;;;10.60;;
66886;SDS011;53798;51.680;5.976;2022-08-24T01:42:02;13.20;;;9.68;;
66886;SDS011;53798;51.680;5.976;2022-08-24T01:44:31;17.25;;;12.48;;
66886;SDS011;53798;51.680;5.976;2022-08-24T01:47:02;18.50;;;14.65;;
66886;SDS011;53798;51.680;5.976;2022-08-24T01:49:36;21.95;;;15.23;;
66886;SDS011;53798;51.680;5.976;2022-08-24T01:52:10;17.38;;;13.02;;
66886;SDS011;53798;51.680;5.976;2022-08-24T01:54:41;18.65;;;12.70;;
66886;SDS011;53798;51.680;5.976;2022-08-24T01:57:10;18.25;;;14.27;;
66886;SDS011;53798;51.680;5.976;2022-08-24T01:59:43;17.00;;;14.30;;
66886;SDS011;53798;51.680;5.976;2022-08-24T02:02:13;13.65;;;12.13;;
66886;SDS011;53798;51.680;5.976;2022-08-24T02:04:50;14.35;;;11.55;;
66886;SDS011;53798;51.680;5.976;2022-08-24T02:07:17;16.80;;;10.65;;
66886;SDS011;53798;51.680;5.976;2022-08-24T02:09:45;13.13;;;9.38;;
66886;SDS011;53798;51.680;5.976;2022-08-24T02:12:14;13.15;;;10.07;;
66886;SDS011;53798;51.680;5.976;2022-08-24T02:14:42;16.40;;;10.20;;
66886;SDS011;53798;51.680;5.976;2022-08-24T02:17:10;12.68;;;10.93;;
66886;SDS011;53798;51.680;5.976;2022-08-24T02:19:41;11.70;;;10.18;;
66886;SDS011;53798;51.680;5.976;2022-08-24T02:22:09;12.18;;;10.27;;
66886;SDS011;53798;51.680;5.976;2022-08-24T02:24:38;11.98;;;9.63;;
66886;SDS011;53798;51.680;5.976;2022-08-24T02:27:08;14.00;;;11.13;;
66886;SDS011;53798;51.680;5.976;2022-08-24T02:29:35;14.13;;;11.95;;
66886;SDS011;53798;51.680;5.976;2022-08-24T02:32:02;14.15;;;12.75;;
66886;SDS011;53798;51.680;5.976;2022-08-24T02:34:30;15.18;;;12.02;;
66886;SDS011;53798;51.680;5.976;2022-08-24T02:36:58;15.00;;;12.20;;
66886;SDS011;53798;51.680;5.976;2022-08-24T02:39:26;15.68;;;12.55;;
66886;SDS011;53798;51.680;5.976;2022-08-24T02:41:54;12.82;;;11.00;;
66886;SDS011;53798;51.680;5.976;2022-08-24T02:44:26;13.38;;;11.95;;
66886;SDS011;53798;51.680;5.976;2022-08-24T02:46:53;15.43;;;12.63;;
66886;SDS011;53798;51.680;5.976;2022-08-24T02:49:21;14.52;;;12.10;;
66886;SDS011;53798;51.680;5.976;2022-08-24T02:51:49;14.68;;;12.18;;
66886;SDS011;53798;51.680;5.976;2022-08-24T02:54:19;13.88;;;12.25;;
66886;SDS011;53798;51.680;5.976;2022-08-24T02:56:49;16.52;;;11.55;;
66886;SDS011;53798;51.680;5.976;2022-08-24T02:59:17;14.05;;;11.18;;
66886;SDS011;53798;51.680;5.976;2022-08-24T03:01:45;16.10;;;12.70;;
66886;SDS011;53798;51.680;5.976;2022-08-24T03:04:16;14.88;;;12.32;;
66886;SDS011;53798;51.680;5.976;2022-08-24T03:06:45;15.45;;;12.23;;
66886;SDS011;53798;51.680;5.976;2022-08-24T03:09:12;14.65;;;12.02;;
66886;SDS011;53798;51.680;5.976;2022-08-24T03:11:40;16.33;;;12.77;;
66886;SDS011;53798;51.680;5.976;2022-08-24T03:14:11;15.25;;;12.55;;
66886;SDS011;53798;51.680;5.976;2022-08-24T03:16:39;16.05;;;12.40;;
66886;SDS011;53798;51.680;5.976;2022-08-24T03:19:07;16.70;;;12.23;;
66886;SDS011;53798;51.680;5.976;2022-08-24T03:21:36;13.10;;;11.50;;
66886;SDS011;53798;51.680;5.976;2022-08-24T03:24:03;16.25;;;12.07;;
66886;SDS011;53798;51.680;5.976;2022-08-24T03:26:31;15.02;;;12.65;;
66886;SDS011;53798;51.680;5.976;2022-08-24T03:28:59;15.90;;;13.50;;
66886;SDS011;53798;51.680;5.976;2022-08-24T03:31:27;15.75;;;12.90;;
66886;SDS011;53798;51.680;5.976;2022-08-24T03:33:54;17.63;;;13.60;;
66886;SDS011;53798;51.680;5.976;2022-08-24T03:36:21;17.98;;;14.32;;
66886;SDS011;53798;51.680;5.976;2022-08-24T03:38:48;18.23;;;14.07;;
66886;SDS011;53798;51.680;5.976;2022-08-24T03:41:17;16.58;;;13.77;;
66886;SDS011;53798;51.680;5.976;2022-08-24T03:43:44;16.75;;;13.55;;
66886;SDS011;53798;51.680;5.976;2022-08-24T03:46:15;15.50;;;13.52;;
66886;SDS011;53798;51.680;5.976;2022-08-24T03:48:51;18.90;;;14.10;;
66886;SDS011;53798;51.680;5.976;2022-08-24T03:51:23;15.23;;;12.18;;
66886;SDS011;53798;51.680;5.976;2022-08-24T03:53:54;15.75;;;13.35;;
66886;SDS011;53798;51.680;5.976;2022-08-24T03:56:26;18.08;;;13.65;;
66886;SDS011;53798;51.680;5.976;2022-08-24T03:58:55;16.70;;;13.90;;
66886;SDS011;53798;51.680;5.976;2022-08-24T04:01:25;14.70;;;13.18;;
66886;SDS011;53798;51.680;5.976;2022-08-24T04:03:54;15.45;;;12.98;;
66886;SDS011;53798;51.680;5.976;2022-08-24T04:06:27;15.80;;;12.95;;
66886;SDS011;53798;51.680;5.976;2022-08-24T04:08:55;19.67;;;13.23;;
66886;SDS011;53798;51.680;5.976;2022-08-24T04:11:24;18.85;;;12.73;;
66886;SDS011;53798;51.680;5.976;2022-08-24T04:13:54;14.57;;;12.27;;
66886;SDS011;53798;51.680;5.976;2022-08-24T04:19:06;15.35;;;12.93;;
66886;SDS011;53798;51.680;5.976;2022-08-24T04:21:34;18.35;;;13.48;;
66886;SDS011;53798;51.680;5.976;2022-08-24T04:24:07;20.45;;;13.63;;
66886;SDS011;53798;51.680;5.976;2022-08-24T04:26:37;14.85;;;12.40;;
66886;SDS011;53798;51.680;5.976;2022-08-24T04:29:14;14.90;;;11.43;;
66886;SDS011;53798;51.680;5.976;2022-08-24T04:31:52;15.10;;;12.85;;
66886;SDS011;53798;51.680;5.976;2022-08-24T04:34:21;18.33;;;15.43;;
66886;SDS011;53798;51.680;5.976;2022-08-24T04:36:49;17.05;;;14.13;;
66886;SDS011;53798;51.680;5.976;2022-08-24T04:39:17;19.50;;;14.57;;
66886;SDS011;53798;51.680;5.976;2022-08-24T04:42:00;16.98;;;14.60;;
66886;SDS011;53798;51.680;5.976;2022-08-24T04:44:34;20.55;;;15.13;;
66886;SDS011;53798;51.680;5.976;2022-08-24T04:47:03;16.65;;;14.20;;
66886;SDS011;53798;51.680;5.976;2022-08-24T04:49:31;16.40;;;13.30;;
66886;SDS011;53798;51.680;5.976;2022-08-24T04:51:59;15.27;;;12.60;;
66886;SDS011;53798;51.680;5.976;2022-08-24T04:54:27;18.20;;;14.77;;
66886;SDS011;53798;51.680;5.976;2022-08-24T04:57:05;20.55;;;15.43;;
66886;SDS011;53798;51.680;5.976;2022-08-24T04:59:32;18.50;;;15.50;;
66886;SDS011;53798;51.680;5.976;2022-08-24T05:02:00;17.10;;;14.60;;
66886;SDS011;53798;51.680;5.976;2022-08-24T05:04:27;19.50;;;17.20;;
66886;SDS011;53798;51.680;5.976;2022-08-24T05:06:57;20.60;;;14.65;;
66886;SDS011;53798;51.680;5.976;2022-08-24T05:09:24;24.48;;;15.05;;
66886;SDS011;53798;51.680;5.976;2022-08-24T05:11:52;21.67;;;14.73;;
66886;SDS011;53798;51.680;5.976;2022-08-24T05:14:24;18.58;;;16.15;;
66886;SDS011;53798;51.680;5.976;2022-08-24T05:16:58;18.83;;;16.15;;
66886;SDS011;53798;51.680;5.976;2022-08-24T05:19:29;19.00;;;16.38;;
66886;SDS011;53798;51.680;5.976;2022-08-24T05:21:58;21.05;;;18.55;;
66886;SDS011;53798;51.680;5.976;2022-08-24T05:24:27;19.88;;;17.20;;
66886;SDS011;53798;51.680;5.976;2022-08-24T05:26:56;20.73;;;17.00;;
66886;SDS011;53798;51.680;5.976;2022-08-24T05:29:25;22.52;;;15.27;;
66886;SDS011;53798;51.680;5.976;2022-08-24T05:31:53;20.48;;;14.35;;
66886;SDS011;53798;51.680;5.976;2022-08-24T05:34:20;18.27;;;13.80;;
66886;SDS011;53798;51.680;5.976;2022-08-24T05:36:50;16.17;;;11.85;;
66886;SDS011;53798;51.680;5.976;2022-08-24T05:39:43;16.30;;;13.25;;
66886;SDS011;53798;51.680;5.976;2022-08-24T05:42:10;14.15;;;11.27;;
66886;SDS011;53798;51.680;5.976;2022-08-24T05:44:45;16.63;;;12.10;;
66886;SDS011;53798;51.680;5.976;2022-08-24T05:47:14;16.23;;;12.15;;
66886;SDS011;53798;51.680;5.976;2022-08-24T05:49:42;15.23;;;13.40;;
66886;SDS011;53798;51.680;5.976;2022-08-24T05:52:09;19.73;;;13.75;;
66886;SDS011;53798;51.680;5.976;2022-08-24T05:54:38;21.13;;;14.18;;
66886;SDS011;53798;51.680;5.976;2022-08-24T05:57:10;16.95;;;14.02;;
66886;SDS011;53798;51.680;5.976;2022-08-24T05:59:50;19.92;;;14.65;;
66886;SDS011;53798;51.680;5.976;2022-08-24T06:02:18;18.13;;;14.82;;
66886;SDS011;53798;51.680;5.976;2022-08-24T06:04:46;22.63;;;13.75;;
66886;SDS011;53798;51.680;5.976;2022-08-24T06:07:13;20.65;;;14.43;;
66886;SDS011;53798;51.680;5.976;2022-08-24T06:09:48;19.85;;;16.80;;
66886;SDS011;53798;51.680;5.976;2022-08-24T06:12:15;21.10;;;17.73;;
66886;SDS011;53798;51.680;5.976;2022-08-24T06:14:45;23.30;;;18.45;;
66886;SDS011;53798;51.680;5.976;2022-08-24T06:17:18;23.52;;;18.10;;
66886;SDS011;53798;51.680;5.976;2022-08-24T06:19:45;22.95;;;18.30;;
66886;SDS011;53798;51.680;5.976;2022-08-24T06:22:13;19.63;;;13.68;;
66886;SDS011;53798;51.680;5.976;2022-08-24T06:24:41;18.60;;;16.27;;
66886;SDS011;53798;51.680;5.976;2022-08-24T06:27:27;23.27;;;19.15;;
66886;SDS011;53798;51.680;5.976;2022-08-24T06:29:58;23.58;;;17.25;;
66886;SDS011;53798;51.680;5.976;2022-08-24T06:32:47;25.85;;;16.92;;
66886;SDS011;53798;51.680;5.976;2022-08-24T06:35:41;22.15;;;16.95;;
66886;SDS011;53798;51.680;5.976;2022-08-24T06:38:12;17.25;;;13.65;;
66886;SDS011;53798;51.680;5.976;2022-08-24T06:40:39;18.00;;;14.75;;
66886;SDS011;53798;51.680;5.976;2022-08-24T06:43:09;21.27;;;16.23;;
66886;SDS011;53798;51.680;5.976;2022-08-24T06:45:53;25.23;;;18.75;;
66886;SDS011;53798;51.680;5.976;2022-08-24T06:48:28;25.30;;;16.00;;
66886;SDS011;53798;51.680;5.976;2022-08-24T06:50:57;32.50;;;18.10;;
66886;SDS011;53798;51.680;5.976;2022-08-24T06:53:26;26.55;;;17.92;;
66886;SDS011;53798;51.680;5.976;2022-08-24T06:55:56;28.40;;;18.52;;
66886;SDS011;53798;51.680;5.976;2022-08-24T06:58:26;21.20;;;18.40;;
66886;SDS011;53798;51.680;5.976;2022-08-24T07:00:55;24.67;;;17.02;;
66886;SDS011;53798;51.680;5.976;2022-08-24T07:03:24;27.63;;;17.45;;
66886;SDS011;53798;51.680;5.976;2022-08-24T07:06:04;24.58;;;17.35;;
66886;SDS011;53798;51.680;5.976;2022-08-24T07:11:12;28.83;;;18.10;;
66886;SDS011;53798;51.680;5.976;2022-08-24T07:13:41;31.35;;;17.90;;
66886;SDS011;53798;51.680;5.976;2022-08-24T07:16:08;28.83;;;16.15;;
66886;SDS011;53798;51.680;5.976;2022-08-24T07:18:37;28.92;;;16.40;;
66886;SDS011;53798;51.680;5.976;2022-08-24T07:21:07;28.40;;;17.48;;
66886;SDS011;53798;51.680;5.976;2022-08-24T07:23:40;30.10;;;19.52;;
66886;SDS011;53798;51.680;5.976;2022-08-24T07:26:14;27.73;;;17.92;;
66886;SDS011;53798;51.680;5.976;2022-08-24T07:28:49;33.67;;;16.73;;
66886;SDS011;53798;51.680;5.976;2022-08-24T07:31:20;25.92;;;17.77;;
66886;SDS011;53798;51.680;5.976;2022-08-24T07:33:55;19.23;;;15.00;;
66886;SDS011;53798;51.680;5.976;2022-08-24T07:36:23;22.25;;;15.48;;
66886;SDS011;53798;51.680;5.976;2022-08-24T07:38:54;27.05;;;15.65;;
66886;SDS011;53798;51.680;5.976;2022-08-24T07:41:24;33.45;;;13.73;;
66886;SDS011;53798;51.680;5.976;2022-08-24T07:44:15;17.75;;;12.52;;
66886;SDS011;53798;51.680;5.976;2022-08-24T07:46:43;23.38;;;11.85;;
66886;SDS011;53798;51.680;5.976;2022-08-24T07:49:12;18.73;;;12.05;;
66886;SDS011;53798;51.680;5.976;2022-08-24T07:52:01;22.33;;;11.40;;
66886;SDS011;53798;51.680;5.976;2022-08-24T07:54:29;35.15;;;11.55;;
66886;SDS011;53798;51.680;5.976;2022-08-24T07:56:57;54.33;;;11.55;;
66886;SDS011;53798;51.680;5.976;2022-08-24T07:59:26;18.20;;;9.40;;
66886;SDS011;53798;51.680;5.976;2022-08-24T08:01:55;28.25;;;8.43;;
66886;SDS011;53798;51.680;5.976;2022-08-24T08:04:22;33.28;;;8.88;;
66886;SDS011;53798;51.680;5.976;2022-08-24T08:06:52;16.58;;;8.90;;
66886;SDS011;53798;51.680;5.976;2022-08-24T08:09:25;15.18;;;8.30;;
66886;SDS011;53798;51.680;5.976;2022-08-24T08:11:53;61.22;;;10.15;;
66886;SDS011;53798;51.680;5.976;2022-08-24T08:14:20;23.60;;;7.82;;
66886;SDS011;53798;51.680;5.976;2022-08-24T08:16:48;17.20;;;7.50;;
66886;SDS011;53798;51.680;5.976;2022-08-24T08:19:15;14.75;;;7.55;;
66886;SDS011;53798;51.680;5.976;2022-08-24T08:21:47;15.32;;;6.32;;
66886;SDS011;53798;51.680;5.976;2022-08-24T08:24:55;14.98;;;6.25;;
66886;SDS011;53798;51.680;5.976;2022-08-24T08:27:23;7.70;;;4.90;;
66886;SDS011;53798;51.680;5.976;2022-08-24T08:29:51;10.20;;;5.30;;
66886;SDS011;53798;51.680;5.976;2022-08-24T08:32:18;16.58;;;7.50;;
66886;SDS011;53798;51.680;5.976;2022-08-24T08:34:48;10.38;;;5.68;;
66886;SDS011;53798;51.680;5.976;2022-08-24T08:37:16;11.20;;;5.97;;
66886;SDS011;53798;51.680;5.976;2022-08-24T08:39:43;11.93;;;4.80;;
66886;SDS011;53798;51.680;5.976;2022-08-24T08:42:20;11.75;;;4.70;;
66886;SDS011;53798;51.680;5.976;2022-08-24T08:45:16;11.73;;;4.93;;
66886;SDS011;53798;51.680;5.976;2022-08-24T09:19:11;5.80;;;1.40;;
66886;SDS011;53798;51.680;5.976;2022-08-24T09:22:21;2.08;;;1.50;;
66886;SDS011;53798;51.680;5.976;2022-08-24T09:27:55;2.75;;;1.50;;
66886;SDS011;53798;51.680;5.976;2022-08-24T09:48:44;1.90;;;1.50;;
66886;SDS011;53798;51.680;5.976;2022-08-24T09:52:03;3.45;;;1.27;;
66886;SDS011;53798;51.680;5.976;2022-08-24T10:04:04;2.92;;;1.50;;
66886;SDS011;53798;51.680;5.976;2022-08-24T10:07:01;3.90;;;1.67;;
66886;SDS011;53798;51.680;5.976;2022-08-24T10:10:14;2.90;;;1.63;;
66886;SDS011;53798;51.680;5.976;2022-08-24T10:25:27;7.32;;;2.05;;
66886;SDS011;53798;51.680;5.976;2022-08-24T10:43:01;22.05;;;2.50;;
66886;SDS011;53798;51.680;5.976;2022-08-24T10:52:41;3.67;;;1.63;;
66886;SDS011;53798;51.680;5.976;2022-08-24T10:55:22;4.60;;;1.20;;
66886;SDS011;53798;51.680;5.976;2022-08-24T10:57:58;11.10;;;1.80;;
66886;SDS011;53798;51.680;5.976;2022-08-24T11:07:02;4.45;;;1.40;;
66886;SDS011;53798;51.680;5.976;2022-08-24T11:10:08;5.40;;;1.33;;
66886;SDS011;53798;51.680;5.976;2022-08-24T11:12:39;8.18;;;1.80;;
66886;SDS011;53798;51.680;5.976;2022-08-24T11:15:24;2.30;;;1.40;;
66886;SDS011;53798;51.680;5.976;2022-08-24T11:17:58;2.08;;;1.40;;
66886;SDS011;53798;51.680;5.976;2022-08-24T11:20:30;6.70;;;1.20;;
66886;SDS011;53798;51.680;5.976;2022-08-24T11:23:14;4.90;;;1.40;;
66886;SDS011;53798;51.680;5.976;2022-08-24T11:26:04;6.75;;;1.40;;
66886;SDS011;53798;51.680;5.976;2022-08-24T11:28:57;6.90;;;1.40;;
66886;SDS011;53798;51.680;5.976;2022-08-24T11:31:32;5.65;;;1.50;;
66886;SDS011;53798;51.680;5.976;2022-08-24T11:34:07;1.95;;;1.20;;
66886;SDS011;53798;51.680;5.976;2022-08-24T11:36:57;2.38;;;1.10;;
66886;SDS011;53798;51.680;5.976;2022-08-24T11:39:26;2.40;;;1.20;;
66886;SDS011;53798;51.680;5.976;2022-08-24T11:42:14;3.97;;;1.20;;
66886;SDS011;53798;51.680;5.976;2022-08-24T11:45:05;3.65;;;1.20;;
66886;SDS011;53798;51.680;5.976;2022-08-24T11:47:49;3.38;;;1.10;;
66886;SDS011;53798;51.680;5.976;2022-08-24T12:02:30;7.82;;;1.50;;
66886;SDS011;53798;51.680;5.976;2022-08-24T12:08:49;3.55;;;1.20;;
66886;SDS011;53798;51.680;5.976;2022-08-24T12:11:42;5.70;;;1.27;;
66886;SDS011;53798;51.680;5.976;2022-08-24T12:19:58;3.03;;;1.10;;
66886;SDS011;53798;51.680;5.976;2022-08-24T12:22:45;2.50;;;0.90;;
66886;SDS011;53798;51.680;5.976;2022-08-24T12:25:14;3.00;;;0.90;;
66886;SDS011;53798;51.680;5.976;2022-08-24T12:28:02;3.50;;;1.02;;
66886;SDS011;53798;51.680;5.976;2022-08-24T12:30:32;2.72;;;1.10;;
66886;SDS011;53798;51.680;5.976;2022-08-24T12:33:01;4.40;;;1.13;;
66886;SDS011;53798;51.680;5.976;2022-08-24T12:35:38;2.97;;;1.00;;
66886;SDS011;53798;51.680;5.976;2022-08-24T12:38:56;4.57;;;1.17;;
66886;SDS011;53798;51.680;5.976;2022-08-24T12:43:59;3.58;;;1.20;;
66886;SDS011;53798;51.680;5.976;2022-08-24T12:46:37;5.63;;;1.20;;
66886;SDS011;53798;51.680;5.976;2022-08-24T12:49:18;4.00;;;1.10;;
66886;SDS011;53798;51.680;5.976;2022-08-24T12:52:05;3.75;;;1.00;;
66886;SDS011;53798;51.680;5.976;2022-08-24T12:57:57;6.60;;;1.27;;
66886;SDS011;53798;51.680;5.976;2022-08-24T13:01:02;7.25;;;1.23;;
66886;SDS011;53798;51.680;5.976;2022-08-24T13:03:37;4.78;;;1.27;;
66886;SDS011;53798;51.680;5.976;2022-08-24T13:06:08;4.78;;;1.40;;
66886;SDS011;53798;51.680;5.976;2022-08-24T13:08:48;17.52;;;2.03;;
66886;SDS011;53798;51.680;5.976;2022-08-24T13:11:27;3.15;;;1.27;;
66886;SDS011;53798;51.680;5.976;2022-08-24T13:21:50;4.85;;;1.23;;
66886;SDS011;53798;51.680;5.976;2022-08-24T13:24:46;8.43;;;1.13;;
66886;SDS011;53798;51.680;5.976;2022-08-24T13:27:44;3.72;;;1.10;;
66886;SDS011;53798;51.680;5.976;2022-08-24T13:30:28;2.45;;;0.90;;
66886;SDS011;53798;51.680;5.976;2022-08-24T13:33:04;5.53;;;1.05;;
66886;SDS011;53798;51.680;5.976;2022-08-24T13:38:24;8.43;;;1.60;;
66886;SDS011;53798;51.680;5.976;2022-08-24T13:41:11;11.70;;;1.83;;
66886;SDS011;53798;51.680;5.976;2022-08-24T13:43:57;8.55;;;1.10;;
66886;SDS011;53798;51.680;5.976;2022-08-24T13:46:40;2.65;;;1.20;;
66886;SDS011;53798;51.680;5.976;2022-08-24T13:49:36;7.43;;;1.10;;
66886;SDS011;53798;51.680;5.976;2022-08-24T13:55:44;5.20;;;1.30;;
66886;SDS011;53798;51.680;5.976;2022-08-24T13:58:32;5.63;;;1.20;;
66886;SDS011;53798;51.680;5.976;2022-08-24T14:01:25;9.88;;;1.50;;
66886;SDS011;53798;51.680;5.976;2022-08-24T14:04:07;5.63;;;1.20;;
66886;SDS011;53798;51.680;5.976;2022-08-24T14:21:59;4.27;;;1.10;;
66886;SDS011;53798;51.680;5.976;2022-08-24T14:24:44;2.47;;;1.20;;
66886;SDS011;53798;51.680;5.976;2022-08-24T14:35:32;3.13;;;1.05;;
66886;SDS011;53798;51.680;5.976;2022-08-24T14:38:37;4.13;;;1.00;;
66886;SDS011;53798;51.680;5.976;2022-08-24T14:55:43;6.18;;;1.17;;
66886;SDS011;53798;51.680;5.976;2022-08-24T15:01:49;4.40;;;1.00;;
66886;SDS011;53798;51.680;5.976;2022-08-24T15:04:44;1.60;;;1.20;;
66886;SDS011;53798;51.680;5.976;2022-08-24T15:07:33;2.97;;;1.00;;
66886;SDS011;53798;51.680;5.976;2022-08-24T15:10:09;5.65;;;1.10;;
66886;SDS011;53798;51.680;5.976;2022-08-24T15:12:41;4.15;;;1.10;;
66886;SDS011;53798;51.680;5.976;2022-08-24T15:18:03;5.95;;;1.13;;
66886;SDS011;53798;51.680;5.976;2022-08-24T15:23:58;4.30;;;1.13;;
66886;SDS011;53798;51.680;5.976;2022-08-24T15:30:17;1.98;;;1.10;;
66886;SDS011;53798;51.680;5.976;2022-08-24T15:32:49;4.40;;;1.10;;
66886;SDS011;53798;51.680;5.976;2022-08-24T15:46:42;4.05;;;1.20;;
66886;SDS011;53798;51.680;5.976;2022-08-24T15:49:19;2.28;;;1.02;;
66886;SDS011;53798;51.680;5.976;2022-08-24T15:55:03;5.00;;;1.20;;
66886;SDS011;53798;51.680;5.976;2022-08-24T15:57:35;11.23;;;1.20;;
66886;SDS011;53798;51.680;5.976;2022-08-24T16:00:08;4.25;;;1.40;;
66886;SDS011;53798;51.680;5.976;2022-08-24T16:03:18;2.55;;;1.25;;
66886;SDS011;53798;51.680;5.976;2022-08-24T16:05:48;3.55;;;1.27;;
66886;SDS011;53798;51.680;5.976;2022-08-24T16:08:19;2.55;;;0.90;;
66886;SDS011;53798;51.680;5.976;2022-08-24T16:10:54;4.00;;;1.00;;
66886;SDS011;53798;51.680;5.976;2022-08-24T16:13:36;3.47;;;1.02;;
66886;SDS011;53798;51.680;5.976;2022-08-24T16:16:10;2.30;;;1.10;;
66886;SDS011;53798;51.680;5.976;2022-08-24T16:21:23;6.20;;;1.10;;
66886;SDS011;53798;51.680;5.976;2022-08-24T16:24:23;3.03;;;1.02;;
66886;SDS011;53798;51.680;5.976;2022-08-24T16:37:27;5.03;;;1.00;;
66886;SDS011;53798;51.680;5.976;2022-08-24T16:39:54;3.58;;;1.08;;
66886;SDS011;53798;51.680;5.976;2022-08-24T16:42:22;4.97;;;1.10;;
66886;SDS011;53798;51.680;5.976;2022-08-24T16:44:54;6.30;;;1.30;;
66886;SDS011;53798;51.680;5.976;2022-08-24T16:47:25;3.63;;;1.15;;
66886;SDS011;53798;51.680;5.976;2022-08-24T16:49:54;2.90;;;1.17;;
66886;SDS011;53798;51.680;5.976;2022-08-24T16:52:22;2.25;;;1.10;;
66886;SDS011;53798;51.680;5.976;2022-08-24T16:54:49;3.75;;;2.13;;
66886;SDS011;53798;51.680;5.976;2022-08-24T16:57:18;3.70;;;1.20;;
66886;SDS011;53798;51.680;5.976;2022-08-24T16:59:50;3.08;;;1.17;;
66886;SDS011;53798;51.680;5.976;2022-08-24T17:02:18;5.25;;;1.02;;
66886;SDS011;53798;51.680;5.976;2022-08-24T17:04:48;1.60;;;1.05;;
66886;SDS011;53798;51.680;5.976;2022-08-24T17:07:18;4.30;;;1.20;;
66886;SDS011;53798;51.680;5.976;2022-08-24T17:09:52;2.72;;;1.20;;
66886;SDS011;53798;51.680;5.976;2022-08-24T17:12:22;4.85;;;1.10;;
66886;SDS011;53798;51.680;5.976;2022-08-24T17:14:50;3.00;;;0.80;;
66886;SDS011;53798;51.680;5.976;2022-08-24T17:17:17;3.53;;;1.10;;
66886;SDS011;53798;51.680;5.976;2022-08-24T17:19:48;6.93;;;1.20;;
66886;SDS011;53798;51.680;5.976;2022-08-24T17:22:19;3.25;;;1.25;;
66886;SDS011;53798;51.680;5.976;2022-08-24T17:24:49;6.93;;;1.17;;
66886;SDS011;53798;51.680;5.976;2022-08-24T17:27:17;1.75;;;1.00;;
66886;SDS011;53798;51.680;5.976;2022-08-24T17:29:48;3.28;;;1.15;;
66886;SDS011;53798;51.680;5.976;2022-08-24T17:32:15;6.05;;;1.20;;
66886;SDS011;53798;51.680;5.976;2022-08-24T17:34:42;4.18;;;1.05;;
66886;SDS011;53798;51.680;5.976;2022-08-24T17:37:10;4.03;;;1.40;;
66886;SDS011;53798;51.680;5.976;2022-08-24T17:39:37;2.67;;;0.95;;
66886;SDS011;53798;51.680;5.976;2022-08-24T17:42:05;3.53;;;1.40;;
66886;SDS011;53798;51.680;5.976;2022-08-24T17:44:52;2.78;;;1.05;;
66886;SDS011;53798;51.680;5.976;2022-08-24T17:47:20;6.70;;;1.30;;
66886;SDS011;53798;51.680;5.976;2022-08-24T17:49:47;3.17;;;1.20;;
66886;SDS011;53798;51.680;5.976;2022-08-24T17:52:15;4.55;;;1.40;;
66886;SDS011;53798;51.680;5.976;2022-08-24T17:54:44;2.42;;;1.38;;
66886;SDS011;53798;51.680;5.976;2022-08-24T17:57:11;5.63;;;1.75;;
66886;SDS011;53798;51.680;5.976;2022-08-24T17:59:40;2.05;;;1.20;;
66886;SDS011;53798;51.680;5.976;2022-08-24T18:02:08;2.63;;;1.20;;
66886;SDS011;53798;51.680;5.976;2022-08-24T18:04:40;6.38;;;1.40;;
66886;SDS011;53798;51.680;5.976;2022-08-24T18:07:17;6.93;;;1.40;;
66886;SDS011;53798;51.680;5.976;2022-08-24T18:10:08;2.15;;;1.25;;
66886;SDS011;53798;51.680;5.976;2022-08-24T18:12:36;4.95;;;1.40;;
66886;SDS011;53798;51.680;5.976;2022-08-24T18:15:04;2.63;;;1.42;;
66886;SDS011;53798;51.680;5.976;2022-08-24T18:17:33;3.80;;;1.50;;
66886;SDS011;53798;51.680;5.976;2022-08-24T18:20:09;2.55;;;1.20;;
66886;SDS011;53798;51.680;5.976;2022-08-24T18:22:42;8.80;;;1.58;;
66886;SDS011;53798;51.680;5.976;2022-08-24T18:25:19;2.38;;;1.27;;
66886;SDS011;53798;51.680;5.976;2022-08-24T18:27:52;4.97;;;1.40;;
66886;SDS011;53798;51.680;5.976;2022-08-24T18:30:24;5.05;;;1.63;;
66886;SDS011;53798;51.680;5.976;2022-08-24T18:32:56;5.72;;;1.52;;
66886;SDS011;53798;51.680;5.976;2022-08-24T18:35:27;4.13;;;1.40;;
66886;SDS011;53798;51.680;5.976;2022-08-24T18:37:56;4.38;;;1.58;;
66886;SDS011;53798;51.680;5.976;2022-08-24T18:40:23;5.93;;;1.65;;
66886;SDS011;53798;51.680;5.976;2022-08-24T18:42:58;3.83;;;1.85;;
66886;SDS011;53798;51.680;5.976;2022-08-24T18:45:29;3.13;;;1.70;;
66886;SDS011;53798;51.680;5.976;2022-08-24T18:47:59;5.38;;;1.70;;
66886;SDS011;53798;51.680;5.976;2022-08-24T18:50:27;6.00;;;1.55;;
66886;SDS011;53798;51.680;5.976;2022-08-24T18:52:56;5.35;;;1.90;;
66886;SDS011;53798;51.680;5.976;2022-08-24T18:55:25;5.15;;;1.80;;
66886;SDS011;53798;51.680;5.976;2022-08-24T18:57:53;10.57;;;1.92;;
66886;SDS011;53798;51.680;5.976;2022-08-24T19:00:20;7.35;;;1.83;;
66886;SDS011;53798;51.680;5.976;2022-08-24T19:02:48;2.88;;;1.48;;
66886;SDS011;53798;51.680;5.976;2022-08-24T19:07:51;5.22;;;1.58;;
66886;SDS011;53798;51.680;5.976;2022-08-24T19:10:24;5.60;;;1.53;;
66886;SDS011;53798;51.680;5.976;2022-08-24T19:12:57;4.25;;;1.85;;
66886;SDS011;53798;51.680;5.976;2022-08-24T19:15:29;4.65;;;1.63;;